Terminal Aerodrome Forecast
Issued by NWS

Home | Current Version | Previous Version | Text Only | Print | Product List | Glossary On
Versions: 1 2 3 4 5 6 7 8 9 10 11 12 13 14 15 16 17 18
000
FTUS43 KBIS 270500
TAFMOT
TAF
KMOT 270520Z 2706/2806 13008KT P6SM BKN110
     FM271100 15010KT 3SM -SN BKN020
     FM271600 17011G18KT P6SM OVC025
     FM272000 28011G18KT P6SM BKN035=

USA.gov is the U.S. government's official web portal to all federal, state and local government web resources and services.